Time;durP1;ratioP1;P1;durP2;ratioP2;P2;SDS_P1;SDS_P2;PMS_P1;PMS_P2;Temp;Humidity;BMP_temperature;BMP_pressure;BME280_temperature;BME280_humidity;BME280_pressure;Samples;Min_cycle;Max_cycle;Signal;HPM_P1;HPM_P2
2023/02/07 00:01:18;;;;;;;;;108.50;77.25;;;;;-10.25;89.10;100845.94;4916239;28;103969;-65
2023/02/07 00:03:46;;;;;;;;;95.50;69.50;;;;;-10.38;88.78;100837.34;4927971;28;102192;-65
2023/02/07 00:06:24;;;;;;;;;79.50;50.00;;;;;-10.45;87.94;100809.56;4922166;28;102018;-64
2023/02/07 00:08:51;;;;;;;;;104.50;71.50;;;;;-10.53;87.84;100821.81;4919735;28;102523;-64
2023/02/07 00:11:20;;;;;;;;;102.25;75.25;;;;;-10.57;88.45;100835.78;4905335;28;104136;-64
2023/02/07 00:13:50;;;;;;;;;77.00;58.00;;;;;-10.61;87.20;100815.81;4917575;28;103449;-64
2023/02/07 00:16:18;;;;;;;;;87.00;60.75;;;;;-10.61;87.02;100819.28;4919740;28;102037;-64
2023/02/07 00:18:45;;;;;;;;;76.25;58.00;;;;;-10.67;87.29;100802.81;4919736;28;102264;-64
2023/02/07 00:21:15;;;;;;;;;69.00;51.50;;;;;-10.68;87.44;100806.31;4916226;28;103958;-67
2023/02/07 00:23:43;;;;;;;;;93.75;63.50;;;;;-10.63;88.04;100805.38;4926442;28;102126;-66
2023/02/07 00:26:12;;;;;;;;;76.25;54.50;;;;;-10.68;87.26;100803.69;4917155;28;102474;-64
2023/02/07 00:28:39;;;;;;;;;64.50;47.00;;;;;-10.62;87.26;100816.69;4911827;28;102527;-64
2023/02/07 00:31:12;;;;;;;;;55.25;42.00;;;;;-10.61;86.61;100815.81;4907332;28;103069;-66
2023/02/07 00:33:41;;;;;;;;;33.25;33.00;;;;;-10.62;87.55;100819.28;4911128;28;102420;-65
2023/02/07 00:36:11;;;;;;;;;49.75;38.25;;;;;-10.58;87.67;100813.19;4910321;28;102450;-64
2023/02/07 00:38:38;;;;;;;;;43.00;33.75;;;;;-10.61;87.18;100815.81;4911422;28;102489;-64
2023/02/07 00:41:06;;;;;;;;;50.50;33.50;;;;;-10.64;87.38;100823.69;4913517;28;104003;-64
2023/02/07 00:43:33;;;;;;;;;75.00;57.25;;;;;-10.69;87.75;100809.78;4911605;28;102300;-64
2023/02/07 00:46:04;;;;;;;;;81.50;63.00;;;;;-10.80;87.90;100812.50;4909786;28;101779;-64
2023/02/07 00:48:32;;;;;;;;;83.00;64.00;;;;;-10.79;87.86;100818.59;4918106;28;102480;-64
2023/02/07 00:50:59;;;;;;;;;97.25;65.25;;;;;-10.80;88.18;100817.72;4907230;28;105228;-64
2023/02/07 00:53:28;;;;;;;;;101.00;68.00;;;;;-10.77;88.01;100811.63;4919330;28;102386;-64
2023/02/07 00:55:56;;;;;;;;;84.75;57.25;;;;;-10.71;88.20;100803.72;4913279;28;102308;-65
2023/02/07 00:58:23;;;;;;;;;79.75;60.25;;;;;-10.74;85.92;100806.34;4914977;28;102364;-65
2023/02/07 01:00:50;;;;;;;;;49.75;37.25;;;;;-10.82;85.11;100802.97;4911703;28;103982;-65
2023/02/07 01:03:18;;;;;;;;;74.50;56.50;;;;;-10.93;85.83;100803.03;4913411;28;102526;-64
2023/02/07 01:05:45;;;;;;;;;60.25;46.50;;;;;-11.04;85.66;100795.31;4913140;28;102412;-64
2023/02/07 01:08:12;;;;;;;;;98.75;71.50;;;;;-11.14;86.57;100806.72;4918664;28;103896;-64
2023/02/07 01:10:41;;;;;;;;;84.50;59.50;;;;;-11.15;88.37;100798.88;4916786;28;103438;-65
2023/02/07 01:13:10;;;;;;;;;68.25;51.25;;;;;-11.24;88.01;100765.91;4911572;28;102498;-64
2023/02/07 01:15:39;;;;;;;;;102.50;67.75;;;;;-11.05;87.33;100784.88;4911187;28;102494;-66
2023/02/07 01:18:07;;;;;;;;;77.25;59.00;;;;;-11.13;86.68;100761.47;4911038;28;101997;-65
2023/02/07 01:20:35;;;;;;;;;76.25;57.00;;;;;-11.19;85.67;100771.94;4914799;28;104036;-65
2023/02/07 01:23:03;;;;;;;;;102.50;73.75;;;;;-11.41;84.08;100775.63;4911649;28;102804;-65
2023/02/07 01:25:30;;;;;;;;;92.25;60.75;;;;;-11.41;85.45;100779.09;4911539;28;102191;-65
2023/02/07 01:27:58;;;;;;;;;62.50;42.00;;;;;-11.44;85.75;100771.28;4915501;28;102554;-63
2023/02/07 01:30:25;;;;;;;;;80.75;55.25;;;;;-11.49;85.83;100756.53;4910100;28;104160;-64
2023/02/07 01:32:52;;;;;;;;;111.75;80.75;;;;;-11.51;86.23;100773.94;4926478;28;102412;-63
2023/02/07 01:35:19;;;;;;;;;96.75;63.00;;;;;-11.59;86.88;100775.75;4914042;28;102325;-64
2023/02/07 01:37:46;;;;;;;;;109.75;75.25;;;;;-11.53;88.27;100770.50;4911940;28;102149;-64
2023/02/07 01:40:13;;;;;;;;;85.00;66.00;;;;;-11.46;86.82;100759.97;4903784;28;103563;-65
2023/02/07 01:42:40;;;;;;;;;100.50;65.25;;;;;-11.46;87.67;100756.50;4901788;28;104214;-64
2023/02/07 01:45:32;;;;;;;;;86.50;64.50;;;;;-11.39;87.69;100768.66;4910201;28;102064;-64
2023/02/07 01:48:05;;;;;;;;;76.75;55.75;;;;;-11.39;87.68;100764.25;4909079;28;102522;-65
2023/02/07 01:50:34;;;;;;;;;94.50;72.50;;;;;-11.38;88.57;100772.97;4918502;28;104160;-65
2023/02/07 01:53:04;;;;;;;;;76.25;54.00;;;;;-11.36;88.48;100763.41;4919331;28;102587;-64
2023/02/07 01:55:35;;;;;;;;;78.75;59.00;;;;;-11.34;88.71;100766.84;4915461;28;102108;-64
2023/02/07 01:58:06;;;;;;;;;67.25;47.00;;;;;-11.34;88.13;100772.94;4915812;28;102194;-64
2023/02/07 02:00:34;;;;;;;;;65.50;45.75;;;;;-11.35;87.03;100770.34;4916070;28;103995;-64
2023/02/07 02:03:02;;;;;;;;;64.75;44.00;;;;;-11.32;88.09;100772.94;4911067;28;102707;-65
2023/02/07 02:05:31;;;;;;;;;69.75;45.00;;;;;-11.38;85.69;100772.97;4911056;28;102453;-65
2023/02/07 02:08:09;;;;;;;;;90.25;58.25;;;;;-11.53;86.16;100760.06;4915439;28;102722;-64
2023/02/07 02:11:16;;;;;;;;;104.75;73.00;;;;;-11.67;85.89;100773.19;4914237;28;103600;-64
2023/02/07 02:14:27;;;;;;;;;119.00;92.50;;;;;-11.77;85.69;100769.81;4913091;28;102200;-64
2023/02/07 02:17:29;;;;;;;;;92.75;66.25;;;;;-11.72;86.69;100763.69;4916700;28;102201;-64
2023/02/07 02:20:48;;;;;;;;;78.25;63.00;;;;;-11.71;87.25;100765.41;4918466;28;103118;-64
2023/02/07 02:24:06;;;;;;;;;95.00;71.00;;;;;-11.79;87.61;100761.13;4920086;28;107802;-64
2023/02/07 02:26:56;;;;;;;;;106.25;76.00;;;;;-11.86;86.19;100767.25;4906869;28;102209;-64
2023/02/07 02:29:44;;;;;;;;;103.75;73.75;;;;;-11.82;86.77;100774.19;4926011;28;102166;-64
2023/02/07 02:32:48;;;;;;;;;91.25;66.50;;;;;-11.76;88.19;100788.94;4919097;28;102552;-64
2023/02/07 02:35:50;;;;;;;;;94.00;72.75;;;;;-11.81;89.51;100785.50;4914220;28;108652;-64
2023/02/07 02:38:34;;;;;;;;;82.00;65.00;;;;;-11.80;88.22;100789.84;4846126;28;102426;-64
2023/02/07 02:41:10;;;;;;;;;88.50;65.25;;;;;-11.74;88.02;100775.88;4916196;28;102190;-64
2023/02/07 02:43:50;;;;;;;;;70.75;56.25;;;;;-11.67;87.33;100772.31;4907710;28;102114;-64
2023/02/07 02:46:22;;;;;;;;;109.75;78.50;;;;;-11.85;85.98;100769.00;4904634;28;103978;-63
2023/02/07 02:48:50;;;;;;;;;101.00;68.50;;;;;-11.92;86.22;100759.47;4914759;28;103719;-64
2023/02/07 02:51:17;;;;;;;;;95.50;66.25;;;;;-11.96;87.21;100765.56;4908076;28;102528;-64
2023/02/07 02:53:54;;;;;;;;;87.25;64.00;;;;;-11.93;87.12;100760.31;4915471;28;103180;-63
2023/02/07 02:56:54;;;;;;;;;92.50;63.00;;;;;-11.86;86.86;100776.81;4916613;28;103981;-64
2023/02/07 02:59:23;;;;;;;;;83.00;56.25;;;;;-11.93;87.67;100769.91;4878379;28;102329;-64
2023/02/07 03:02:28;;;;;;;;;86.00;64.25;;;;;-11.93;87.72;100772.53;4910689;28;102760;-63
2023/02/07 03:05:06;;;;;;;;;88.25;68.50;;;;;-11.97;88.02;100765.56;4913757;28;102432;-63
2023/02/07 03:07:58;;;;;;;;;101.25;70.00;;;;;-11.97;86.86;100768.19;4897478;28;108164;-64
2023/02/07 03:10:56;;;;;;;;;114.75;79.50;;;;;-12.12;86.03;100774.38;4918193;28;102389;-64
2023/02/07 03:13:34;;;;;;;;;95.00;69.25;;;;;-12.10;86.29;100767.38;4904524;28;102343;-64
2023/02/07 03:16:14;;;;;;;;;76.75;59.25;;;;;-12.04;86.55;100771.69;4918866;28;102093;-63
2023/02/07 03:18:59;;;;;;;;;82.50;58.25;;;;;-11.97;88.19;100770.78;4920741;28;103955;-63
2023/02/07 03:21:30;;;;;;;;;99.50;68.00;;;;;-12.09;88.11;100776.06;4927617;28;102335;-63
2023/02/07 03:24:03;;;;;;;;;80.25;57.50;;;;;-12.06;88.30;100771.69;4905804;28;102223;-64
2023/02/07 03:26:33;;;;;;;;;79.25;56.25;;;;;-12.05;86.92;100781.25;4917876;28;102434;-63
2023/02/07 03:29:04;;;;;;;;;111.75;77.25;;;;;-12.17;86.29;100780.47;4918817;28;104061;-64
2023/02/07 03:31:33;;;;;;;;;87.25;63.25;;;;;-12.24;86.43;100780.47;4918582;28;102227;-63
2023/02/07 03:34:08;;;;;;;;;42.75;23.50;;;;;-12.12;86.84;100786.53;4926491;28;101974;-63
2023/02/07 03:36:45;;;;;;;;;89.75;59.75;;;;;-12.01;86.88;100790.78;4914104;28;102350;-63
2023/02/07 03:39:12;;;;;;;;;59.00;45.75;;;;;-11.97;87.00;100789.03;4909143;28;103988;-64
2023/02/07 03:42:14;;;;;;;;;63.50;51.25;;;;;-12.10;86.80;100753.47;4912962;28;102275;-64
2023/02/07 03:44:43;;;;;;;;;66.75;49.00;;;;;-11.96;86.36;100781.22;4891789;28;102184;-64
2023/02/07 03:47:10;;;;;;;;;71.25;52.25;;;;;-11.98;86.98;100782.97;4896984;28;102241;-64
2023/02/07 03:49:37;;;;;;;;;96.25;69.00;;;;;-12.05;87.47;100785.59;4898224;28;104068;-64
2023/02/07 03:52:04;;;;;;;;;99.25;73.50;;;;;-12.04;86.88;100788.22;4893457;28;102184;-64
2023/02/07 03:54:31;;;;;;;;;101.00;70.00;;;;;-12.04;87.63;100787.34;4893880;28;102361;-63
2023/02/07 03:56:58;;;;;;;;;60.25;47.00;;;;;-12.01;87.14;100780.38;4898334;28;103388;-63
2023/02/07 03:59:26;;;;;;;;;74.00;54.50;;;;;-12.05;84.99;100791.69;4893922;28;108414;-64
2023/02/07 04:01:53;;;;;;;;;64.50;49.75;;;;;-12.09;85.85;100787.38;4891359;28;102423;-63
2023/02/07 04:04:20;;;;;;;;;70.25;52.50;;;;;-12.24;87.31;100797.84;4898119;28;102101;-65
2023/02/07 04:06:47;;;;;;;;;74.75;52.00;;;;;-12.25;86.38;100799.63;4891024;28;101863;-63
2023/02/07 04:09:14;;;;;;;;;90.25;62.75;;;;;-12.48;86.24;100756.28;4894716;28;104090;-62
2023/02/07 04:11:41;;;;;;;;;49.50;38.50;;;;;-12.24;86.94;100805.66;4902868;28;102436;-63
2023/02/07 04:14:08;;;;;;;;;89.00;61.75;;;;;-12.30;86.25;100803.09;4902104;28;102101;-63
2023/02/07 04:16:35;;;;;;;;;81.00;55.75;;;;;-12.28;85.82;100798.75;4897675;28;102290;-63
2023/02/07 04:19:02;;;;;;;;;78.50;58.50;;;;;-12.39;85.97;100795.31;4904859;28;104008;-63
2023/02/07 04:21:29;;;;;;;;;80.75;56.75;;;;;-12.32;85.66;100789.19;4903527;28;102278;-63
2023/02/07 04:23:56;;;;;;;;;41.25;33.75;;;;;-12.25;85.77;100801.34;4903926;28;102272;-63
2023/02/07 04:26:23;;;;;;;;;54.25;41.50;;;;;-12.20;85.24;100789.13;4896127;28;102921;-63
2023/02/07 04:28:50;;;;;;;;;47.25;36.25;;;;;-12.20;84.46;100790.91;4903130;28;104008;-63
2023/02/07 04:31:17;;;;;;;;;46.75;40.25;;;;;-12.23;85.59;100794.38;4907347;28;102189;-64
2023/02/07 04:33:44;;;;;;;;;55.75;44.50;;;;;-12.23;85.91;100782.22;4904677;28;104498;-63
2023/02/07 04:36:11;;;;;;;;;33.75;23.50;;;;;-12.27;84.26;100788.31;4896215;28;102273;-64
2023/02/07 04:38:38;;;;;;;;;49.00;44.00;;;;;-12.30;84.13;100782.25;4895693;28;103989;-67
2023/02/07 04:41:05;;;;;;;;;37.25;33.50;;;;;-12.35;84.55;100777.06;4900876;28;102201;-67
2023/02/07 04:43:35;;;;;;;;;34.25;26.50;;;;;-12.30;84.10;100784.88;4901525;28;102057;-65
2023/02/07 04:46:04;;;;;;;;;47.50;34.75;;;;;-12.27;85.89;100777.91;4888050;28;102393;-64
2023/02/07 04:48:32;;;;;;;;;53.00;45.50;;;;;-12.30;85.71;100790.06;4891325;28;103798;-66
2023/02/07 04:50:59;;;;;;;;;65.75;49.00;;;;;-12.34;85.45;100794.44;4897293;28;102325;-66
2023/02/07 04:53:26;;;;;;;;;58.50;45.00;;;;;-12.45;85.18;100801.41;4902119;28;102326;-65
2023/02/07 04:55:54;;;;;;;;;73.00;50.75;;;;;-12.44;85.41;100799.69;4897133;28;102395;-68
2023/02/07 04:58:21;;;;;;;;;78.50;57.50;;;;;-12.48;85.72;100809.25;4893983;28;104021;-67
2023/02/07 05:00:48;;;;;;;;;44.00;23.00;;;;;-12.52;86.14;100794.50;4895839;28;102450;-67
2023/02/07 05:03:15;;;;;;;;;78.00;57.50;;;;;-12.55;84.77;100804.03;4903638;28;102040;-67
2023/02/07 05:05:43;;;;;;;;;79.00;54.50;;;;;-12.60;85.03;100808.38;4903505;28;102192;-68
2023/02/07 05:08:11;;;;;;;;;68.75;51.75;;;;;-12.61;85.43;100804.94;4898225;28;104076;-66
2023/02/07 05:10:39;;;;;;;;;60.25;47.00;;;;;-12.73;86.43;100774.56;4901235;28;102366;-66
2023/02/07 05:13:06;;;;;;;;;61.00;42.75;;;;;-12.38;86.14;100807.50;4917481;28;102412;-66
2023/02/07 05:15:33;;;;;;;;;66.00;50.00;;;;;-12.56;86.00;100761.50;4893267;28;102529;-63
2023/02/07 05:18:01;;;;;;;;;58.00;45.25;;;;;-12.26;84.99;100807.44;4896562;28;104079;-64
2023/02/07 05:20:28;;;;;;;;;50.00;44.00;;;;;-12.29;82.96;100805.69;4899254;28;104077;-64
2023/02/07 05:22:55;;;;;;;;;71.00;54.25;;;;;-12.26;85.00;100803.09;4893590;28;104002;-64
2023/02/07 05:25:22;;;;;;;;;58.75;49.25;;;;;-12.18;83.62;100805.66;4896278;28;102513;-64
2023/02/07 05:27:49;;;;;;;;;68.25;48.50;;;;;-12.18;85.46;100803.06;4893926;28;104023;-63
2023/02/07 05:30:16;;;;;;;;;54.75;37.25;;;;;-12.10;85.28;100798.66;4891340;28;102485;-64
2023/02/07 05:35:39;;;;;;;;;49.75;41.50;;;;;-11.82;85.59;100805.47;4894637;28;102362;-64
2023/02/07 05:38:12;;;;;;;;;54.50;38.50;;;;;-11.63;85.97;100807.94;4896238;28;108549;-64
2023/02/07 05:40:40;;;;;;;;;65.75;47.75;;;;;-11.58;85.50;100814.00;4892785;28;102310;-64
2023/02/07 05:43:08;;;;;;;;;77.00;56.75;;;;;-11.44;85.92;100822.63;4892315;28;103132;-64
2023/02/07 05:45:35;;;;;;;;;66.25;48.50;;;;;-11.43;86.93;100787.78;4898434;28;102254;-63
2023/02/07 05:48:03;;;;;;;;;35.50;34.75;;;;;-11.10;87.20;100818.88;4890412;28;103744;-65
2023/02/07 05:50:30;;;;;;;;;69.75;53.00;;;;;-10.94;86.81;100817.00;4899151;28;102283;-64
2023/02/07 05:52:57;;;;;;;;;35.50;25.50;;;;;-10.83;86.71;100801.22;4903325;28;101976;-63
2023/02/07 05:55:24;;;;;;;;;48.50;39.50;;;;;-10.59;87.74;100801.00;4895822;28;102610;-63
2023/02/07 05:57:51;;;;;;;;;38.50;31.75;;;;;-10.44;87.92;100811.25;4891382;28;103974;-65
2023/02/07 06:00:19;;;;;;;;;43.25;39.25;;;;;-10.29;88.21;100805.00;4894111;28;102508;-64
2023/02/07 06:02:46;;;;;;;;;68.50;50.00;;;;;-10.22;88.01;100817.16;4893615;28;102368;-65
2023/02/07 06:05:16;;;;;;;;;42.75;34.25;;;;;-10.11;87.84;100810.84;4901284;28;102439;-64
2023/02/07 06:07:43;;;;;;;;;44.50;42.75;;;;;-9.97;87.51;100808.94;4889359;28;104024;-66
2023/02/07 06:10:11;;;;;;;;;32.25;23.75;;;;;-9.91;87.59;100808.00;4903823;28;102644;-63
2023/02/07 06:12:38;;;;;;;;;61.50;48.25;;;;;-9.78;87.11;100808.69;4891679;28;102465;-65
2023/02/07 06:15:06;;;;;;;;;50.00;34.50;;;;;-9.66;87.38;100812.00;4905565;28;102202;-65
2023/02/07 06:17:33;;;;;;;;;38.25;22.50;;;;;-9.58;87.03;100817.13;4890358;28;104578;-64
2023/02/07 06:20:00;;;;;;;;;46.50;34.50;;;;;-9.51;86.61;100811.81;4887610;28;104351;-67
2023/02/07 06:22:27;;;;;;;;;24.25;22.50;;;;;-9.51;87.36;100830.13;4892214;28;102835;-65
2023/02/07 06:24:54;;;;;;;;;54.00;40.25;;;;;-9.42;86.51;100817.78;4910745;28;102425;-66
2023/02/07 06:27:21;;;;;;;;;60.25;40.50;;;;;-9.37;86.44;100819.47;4899443;28;104036;-66
2023/02/07 06:29:48;;;;;;;;;84.00;59.00;;;;;-9.34;86.88;100824.63;4900625;28;102499;-66
2023/02/07 06:32:15;;;;;;;;;74.25;52.50;;;;;-9.23;87.60;100832.34;4898579;28;102757;-66
2023/02/07 06:34:42;;;;;;;;;75.50;56.00;;;;;-9.19;86.92;100821.81;4900605;28;102294;-67
2023/02/07 06:37:09;;;;;;;;;68.25;50.75;;;;;-9.11;86.82;100829.53;4900759;28;103943;-66
2023/02/07 06:39:36;;;;;;;;;68.25;52.25;;;;;-9.10;87.40;100833.88;4893145;28;103202;-66
2023/02/07 06:42:03;;;;;;;;;50.00;39.00;;;;;-8.97;87.55;100827.56;4899234;28;102084;-66
2023/02/07 06:44:30;;;;;;;;;69.75;51.75;;;;;-8.87;87.83;100830.91;4891820;28;102422;-66
2023/02/07 06:46:57;;;;;;;;;43.75;33.25;;;;;-8.79;87.07;100837.75;4892758;28;104021;-66
2023/02/07 06:49:24;;;;;;;;;70.50;50.75;;;;;-8.67;86.80;100836.66;4911988;28;102412;-66
2023/02/07 06:51:51;;;;;;;;;59.00;48.75;;;;;-8.55;87.28;100843.44;4902228;28;102092;-66
2023/02/07 06:54:18;;;;;;;;;50.75;41.25;;;;;-8.45;86.83;100839.75;4900951;28;102640;-66
2023/02/07 06:56:45;;;;;;;;;72.25;52.00;;;;;-8.44;86.71;100839.72;4896659;28;110534;-66
2023/02/07 06:59:11;;;;;;;;;64.00;48.50;;;;;-8.34;85.72;100846.56;4884711;28;102543;-66
2023/02/07 07:01:38;;;;;;;;;69.75;50.25;;;;;-8.27;86.26;100848.13;4897004;28;102275;-66
2023/02/07 07:04:05;;;;;;;;;101.50;72.00;;;;;-8.36;86.68;100850.94;4893895;28;102037;-66
2023/02/07 07:06:33;;;;;;;;;84.75;61.50;;;;;-8.26;86.82;100849.84;4894906;28;103996;-66
2023/02/07 07:08:59;;;;;;;;;65.50;46.50;;;;;-8.14;86.01;100846.97;4898335;28;102281;-66
2023/02/07 07:11:27;;;;;;;;;115.00;91.00;;;;;-8.33;87.48;100858.75;4900787;28;102184;-66
2023/02/07 07:13:54;;;;;;;;;115.25;81.50;;;;;-8.23;86.51;100864.66;4901795;28;102035;-66
2023/02/07 07:16:21;;;;;;;;;93.50;66.25;;;;;-8.10;87.19;100852.19;4901312;28;104030;-67
2023/02/07 07:18:48;;;;;;;;;100.00;68.50;;;;;-8.06;86.74;100849.47;4900484;28;102298;-67
2023/02/07 07:21:15;;;;;;;;;81.75;57.25;;;;;-7.90;87.94;100847.41;4907428;28;106077;-66
2023/02/07 07:23:42;;;;;;;;;67.50;47.50;;;;;-7.80;86.03;100843.69;4904866;28;102172;-66
2023/02/07 07:26:09;;;;;;;;;58.75;47.50;;;;;-7.69;85.36;100837.31;4896833;28;104053;-66
2023/02/07 07:28:35;;;;;;;;;82.00;54.50;;;;;-7.65;85.03;100827.59;4891961;28;102417;-67
2023/02/07 07:31:06;;;;;;;;;46.50;28.50;;;;;-7.54;85.35;100825.63;4901549;28;102067;-67
2023/02/07 07:33:33;;;;;;;;;64.75;54.00;;;;;-7.46;85.54;100831.56;4901763;28;102097;-67
2023/02/07 07:36:01;;;;;;;;;65.75;49.50;;;;;-7.44;83.55;100827.16;4905312;28;104094;-68
2023/02/07 07:38:28;;;;;;;;;82.25;62.75;;;;;-7.42;84.67;100838.47;4901491;28;102157;-66
2023/02/07 07:40:56;;;;;;;;;115.75;84.25;;;;;-7.62;85.89;100834.56;4906499;28;102362;-67
2023/02/07 07:43:23;;;;;;;;;102.00;72.00;;;;;-7.53;86.02;100837.88;4895698;28;102098;-66
2023/02/07 07:45:55;;;;;;;;;92.25;66.00;;;;;-7.44;85.07;100837.66;4899633;28;104075;-67
2023/02/07 07:48:23;;;;;;;;;74.00;58.75;;;;;-7.37;84.73;100823.47;4899439;28;102296;-67
2023/02/07 07:50:51;;;;;;;;;71.00;51.25;;;;;-7.26;83.78;100837.25;4910434;28;102391;-66
2023/02/07 07:53:19;;;;;;;;;67.50;49.00;;;;;-7.19;84.42;100829.19;4892884;28;102838;-67
2023/02/07 07:55:51;;;;;;;;;72.00;54.75;;;;;-7.12;83.26;100830.81;4903712;28;104018;-67
2023/02/07 07:58:19;;;;;;;;;74.75;57.00;;;;;-7.05;83.41;100829.75;4890442;28;102291;-68
2023/02/07 08:00:49;;;;;;;;;66.50;52.00;;;;;-7.00;84.21;100822.63;4893374;28;102416;-68
2023/02/07 08:03:18;;;;;;;;;56.00;51.50;;;;;-6.92;83.99;100816.28;4902952;28;102589;-66
2023/02/07 08:05:46;;;;;;;;;69.75;53.00;;;;;-6.92;84.22;100800.50;4899072;28;103984;-67
2023/02/07 08:08:13;;;;;;;;;51.75;47.25;;;;;-6.72;84.63;100817.53;4899698;28;102457;-67
2023/02/07 08:10:40;;;;;;;;;81.00;59.00;;;;;-7.06;83.16;100765.78;4910510;28;102090;-67
2023/02/07 08:13:08;;;;;;;;;78.50;57.00;;;;;-6.62;83.92;100821.69;4893784;28;102473;-67
2023/02/07 08:15:35;;;;;;;;;67.50;53.75;;;;;-6.52;83.20;100821.38;4899817;28;104185;-67
2023/02/07 08:18:02;;;;;;;;;72.75;49.75;;;;;-6.45;82.03;100822.09;4895490;28;102796;-68
2023/02/07 08:20:29;;;;;;;;;75.25;50.00;;;;;-6.42;82.52;100807.09;4906357;28;102594;-67
2023/02/07 08:22:56;;;;;;;;;72.50;48.75;;;;;-6.34;81.88;100804.22;4903994;28;102390;-68
2023/02/07 08:25:24;;;;;;;;;69.00;49.00;;;;;-6.24;82.72;100804.84;4900105;28;103982;-68
2023/02/07 08:27:51;;;;;;;;;65.50;46.25;;;;;-6.17;82.18;100793.25;4904473;28;102532;-68
2023/02/07 08:30:19;;;;;;;;;50.00;42.75;;;;;-6.03;81.92;100807.75;4897864;28;102330;-67
2023/02/07 08:32:46;;;;;;;;;53.25;38.75;;;;;-5.96;81.77;100805.81;4899150;28;102650;-68
2023/02/07 08:35:14;;;;;;;;;46.50;35.00;;;;;-5.93;81.42;100813.63;4910362;28;103346;-68
2023/02/07 08:37:41;;;;;;;;;40.00;30.25;;;;;-5.85;81.65;100804.56;4896005;28;102500;-66
2023/02/07 08:40:08;;;;;;;;;45.75;29.50;;;;;-5.76;82.02;100821.84;4894737;28;102258;-68
2023/02/07 08:42:35;;;;;;;;;42.50;33.75;;;;;-5.70;81.48;100819.06;4894308;28;102552;-68
2023/02/07 08:45:04;;;;;;;;;40.50;38.50;;;;;-5.64;81.37;100828.56;4893576;28;103671;-68
2023/02/07 08:47:31;;;;;;;;;61.50;48.75;;;;;-5.60;81.96;100825.78;4901643;28;102498;-67
2023/02/07 08:49:58;;;;;;;;;54.25;43.25;;;;;-5.63;81.03;100810.03;4900815;28;102171;-67
2023/02/07 08:52:25;;;;;;;;;48.25;38.50;;;;;-5.49;80.67;100828.94;4898992;28;102447;-68
2023/02/07 08:54:55;;;;;;;;;39.75;27.75;;;;;-5.48;81.13;100821.91;4896201;28;104136;-69
2023/02/07 08:57:24;;;;;;;;;61.00;47.50;;;;;-5.50;81.20;100818.47;4895968;28;102230;-68
2023/02/07 08:59:52;;;;;;;;;67.00;48.00;;;;;-5.48;82.42;100825.41;4900182;28;102191;-68
2023/02/07 09:02:19;;;;;;;;;69.50;52.00;;;;;-5.51;81.72;100820.25;4903497;28;102175;-68
2023/02/07 09:04:47;;;;;;;;;67.25;51.50;;;;;-5.53;81.93;100816.78;4901115;28;104085;-68
2023/02/07 09:07:14;;;;;;;;;83.00;63.00;;;;;-5.56;82.13;100813.38;4901679;28;102825;-67
2023/02/07 09:09:41;;;;;;;;;100.75;74.00;;;;;-5.65;82.31;100800.47;4905269;28;102017;-68
2023/02/07 09:12:09;;;;;;;;;99.50;73.00;;;;;-5.63;81.65;100788.13;4909052;28;102191;-67
2023/02/07 09:14:38;;;;;;;;;97.25;75.25;;;;;-5.64;81.23;100803.06;4897779;28;103651;-68
2023/02/07 09:17:05;;;;;;;;;142.25;115.25;;;;;-5.96;83.47;100811.09;4894087;28;102157;-68
2023/02/07 09:19:34;;;;;;;;;158.75;101.75;;;;;-5.86;84.64;100801.97;4895893;28;102076;-68
2023/02/07 09:22:01;;;;;;;;;132.75;103.00;;;;;-5.81;85.09;100805.34;4900775;28;102454;-69
2023/02/07 09:24:28;;;;;;;;;101.25;72.00;;;;;-5.55;84.33;100807.22;4907179;28;104151;-67
2023/02/07 09:26:55;;;;;;;;;103.25;72.50;;;;;-5.35;83.46;100801.31;4904897;28;102207;-68
2023/02/07 09:29:24;;;;;;;;;114.25;91.50;;;;;-5.49;82.76;100802.59;4895099;28;102181;-68
2023/02/07 09:31:51;;;;;;;;;180.25;120.00;;;;;-5.65;85.10;100796.06;4900072;28;102204;-68
2023/02/07 09:34:19;;;;;;;;;130.75;102.75;;;;;-5.49;85.89;100807.00;4898239;28;104565;-68
2023/02/07 09:36:46;;;;;;;;;115.50;84.75;;;;;-5.43;84.32;100812.97;4908036;28;102144;-68
2023/02/07 09:39:13;;;;;;;;;112.00;80.25;;;;;-5.34;84.29;100808.31;4902218;28;102362;-68
2023/02/07 09:42:04;;;;;;;;;97.75;73.75;;;;;-5.13;84.78;100805.84;4880136;28;102469;-68
2023/02/07 09:44:56;;;;;;;;;106.25;76.00;;;;;-4.85;84.17;100816.38;4892315;28;108520;-69
2023/02/07 09:47:25;;;;;;;;;117.25;90.00;;;;;-4.95;83.27;100805.25;4898974;28;102659;-68
2023/02/07 09:50:01;;;;;;;;;114.50;85.00;;;;;-4.96;83.89;100800.06;4899529;28;101847;-68
2023/02/07 09:52:43;;;;;;;;;112.25;78.75;;;;;-4.81;84.20;100796.91;4884977;28;102123;-69
2023/02/07 09:55:22;;;;;;;;;113.50;83.50;;;;;-4.57;82.85;100795.22;4890752;28;108507;-69
2023/02/07 09:57:57;;;;;;;;;96.75;69.00;;;;;-4.50;81.61;100776.47;4896964;28;102543;-69
2023/02/07 10:00:33;;;;;;;;;88.00;65.50;;;;;-4.42;81.55;100780.63;4902403;28;102083;-69
2023/02/07 10:03:21;;;;;;;;;70.25;53.75;;;;;-4.24;81.70;100777.34;4900095;28;104243;-70
2023/02/07 10:06:01;;;;;;;;;87.25;65.50;;;;;-4.22;80.07;100775.50;4902029;28;104406;-68
2023/02/07 10:08:53;;;;;;;;;97.25;69.75;;;;;-4.46;81.84;100715.66;4885592;28;102409;-68
2023/02/07 10:11:44;;;;;;;;;86.25;58.50;;;;;-4.01;80.99;100768.59;4904126;28;102382;-68
2023/02/07 10:14:26;;;;;;;;;80.25;61.00;;;;;-3.99;80.80;100775.50;4906461;28;102010;-68
2023/02/07 10:17:02;;;;;;;;;106.00;77.50;;;;;-4.05;80.98;100778.38;4895911;28;104002;-68
2023/02/07 10:19:51;;;;;;;;;112.00;78.75;;;;;-4.10;81.80;100770.63;4892810;28;102311;-69
2023/02/07 10:22:39;;;;;;;;;97.25;68.75;;;;;-3.91;80.67;100760.22;4895909;28;102827;-69
2023/02/07 10:25:35;;;;;;;;;64.50;39.75;;;;;-4.03;81.17;100752.78;4902995;28;102322;-69
2023/02/07 10:28:41;;;;;;;;;119.00;87.00;;;;;-3.90;82.16;100754.03;4891373;28;109947;-69
2023/02/07 10:31:15;;;;;;;;;134.75;87.25;;;;;-3.85;81.68;100744.16;4877037;28;102281;-69
2023/02/07 10:33:49;;;;;;;;;102.00;75.25;;;;;-3.67;82.68;100742.59;4908663;28;102185;-69
2023/02/07 10:36:17;;;;;;;;;90.50;67.50;;;;;-3.54;80.42;100745.63;4911014;28;102585;-69
2023/02/07 10:39:11;;;;;;;;;111.00;77.75;;;;;-3.44;81.43;100744.34;4897794;28;103734;-69
2023/02/07 10:41:40;;;;;;;;;92.75;70.50;;;;;-3.40;80.99;100735.34;4903637;28;102266;-68
2023/02/07 10:44:19;;;;;;;;;119.25;94.25;;;;;-3.56;81.26;100736.91;4901868;28;102516;-69
2023/02/07 10:46:53;;;;;;;;;136.25;100.50;;;;;-3.69;82.27;100732.06;4894346;28;102359;-68
2023/02/07 10:49:27;;;;;;;;;140.25;101.25;;;;;-3.67;82.25;100726.72;4893720;28;104378;-69
2023/02/07 10:51:58;;;;;;;;;186.75;148.50;;;;;-3.86;84.07;100734.50;4905731;28;102424;-69
2023/02/07 10:54:26;;;;;;;;;168.50;120.75;;;;;-3.63;83.07;100733.63;4902096;28;103388;-70
2023/02/07 10:57:18;;;;;;;;;183.25;137.00;;;;;-3.62;84.18;100738.84;4896353;28;102011;-69
2023/02/07 10:59:45;;;;;;;;;130.75;99.25;;;;;-3.41;81.82;100739.78;4898744;28;108628;-69
2023/02/07 11:02:27;;;;;;;;;174.75;132.75;;;;;-3.54;81.77;100745.63;4911751;28;102736;-70
2023/02/07 11:05:00;;;;;;;;;128.75;107.50;;;;;-3.31;83.92;100737.63;4901278;28;102126;-69
2023/02/07 11:07:27;;;;;;;;;176.50;131.75;;;;;-3.64;83.83;100724.81;4901825;28;102315;-69
2023/02/07 11:10:24;;;;;;;;;152.25;110.25;;;;;-3.34;83.27;100746.56;4898574;28;107841;-70
2023/02/07 11:12:56;;;;;;;;;119.25;89.75;;;;;-3.15;82.88;100744.88;4901516;28;102709;-71
2023/02/07 11:15:34;;;;;;;;;150.25;108.25;;;;;-2.97;81.29;100750.38;4895604;28;102066;-70
2023/02/07 11:18:02;;;;;;;;;133.25;101.50;;;;;-3.03;80.97;100747.97;4894386;28;101962;-70